createdAt,value
2023-06-25T00:01:41.228Z,14.64
2023-06-25T00:04:07.616Z,14.61
2023-06-25T00:06:33.777Z,14.64
2023-06-25T00:08:59.917Z,14.61
2023-06-25T00:11:26.084Z,14.60
2023-06-25T00:13:54.231Z,14.64
2023-06-25T00:16:20.792Z,14.65
2023-06-25T00:18:47.764Z,14.73
2023-06-25T00:21:14.076Z,14.81
2023-06-25T00:23:40.236Z,14.86
2023-06-25T00:26:06.432Z,14.88
2023-06-25T00:28:32.519Z,14.86
2023-06-25T00:30:58.826Z,14.84
2023-06-25T00:33:25.041Z,14.80
2023-06-25T00:35:51.154Z,14.77
2023-06-25T00:38:17.355Z,14.73
2023-06-25T00:40:43.672Z,14.67
2023-06-25T00:43:10.073Z,14.63
2023-06-25T00:45:36.310Z,14.60
2023-06-25T00:48:02.574Z,14.56
2023-06-25T00:50:28.756Z,14.56
2023-06-25T00:52:57.489Z,14.57
2023-06-25T00:55:23.697Z,14.55
2023-06-25T00:57:52.400Z,14.52
2023-06-25T01:00:18.750Z,14.53
2023-06-25T01:02:46.881Z,14.54
2023-06-25T01:05:13.285Z,14.53
2023-06-25T01:07:39.443Z,14.60
2023-06-25T01:10:05.718Z,14.66
2023-06-25T01:12:32.440Z,14.69
2023-06-25T01:14:59.804Z,14.69
2023-06-25T01:17:26.983Z,14.66
2023-06-25T01:19:53.203Z,14.61
2023-06-25T01:22:19.430Z,14.60
2023-06-25T01:24:45.611Z,14.63
2023-06-25T01:27:11.805Z,14.62
2023-06-25T01:29:38.643Z,14.58
2023-06-25T01:32:06.696Z,14.52
2023-06-25T01:34:33.007Z,14.49
2023-06-25T01:36:59.132Z,14.51
2023-06-25T01:39:25.870Z,14.52
2023-06-25T01:41:52.019Z,14.53
2023-06-25T01:44:19.969Z,14.54
2023-06-25T01:46:47.749Z,14.54
2023-06-25T01:49:23.045Z,14.46
2023-06-25T01:51:57.024Z,14.40
2023-06-25T01:54:23.352Z,14.42
2023-06-25T01:56:49.504Z,14.42
2023-06-25T01:59:15.775Z,14.32
2023-06-25T02:01:42.037Z,14.31
2023-06-25T02:04:08.437Z,14.31
2023-06-25T02:06:34.798Z,14.33
2023-06-25T02:09:00.961Z,14.36
2023-06-25T02:11:27.166Z,14.37
2023-06-25T02:13:53.427Z,14.31
2023-06-25T02:16:19.668Z,14.25
2023-06-25T02:18:45.901Z,14.21
2023-06-25T02:21:12.287Z,14.18
2023-06-25T02:23:38.447Z,14.18
2023-06-25T02:26:05.048Z,14.17
2023-06-25T02:28:31.235Z,14.13
2023-06-25T02:30:57.443Z,14.05
2023-06-25T02:33:23.613Z,14.00
2023-06-25T02:35:49.809Z,13.97
2023-06-25T02:38:15.986Z,13.96
2023-06-25T02:40:42.114Z,13.97
2023-06-25T02:43:08.304Z,13.96
2023-06-25T02:45:34.655Z,13.93
2023-06-25T02:48:00.963Z,13.89
2023-06-25T02:50:27.237Z,13.85
2023-06-25T02:52:53.403Z,13.85
2023-06-25T02:55:19.868Z,13.84
2023-06-25T02:57:46.060Z,13.80
2023-06-25T03:00:12.306Z,13.73
2023-06-25T03:02:38.619Z,13.68
2023-06-25T03:05:04.939Z,13.64
2023-06-25T03:07:31.053Z,13.65
2023-06-25T03:09:57.498Z,13.67
2023-06-25T03:12:23.778Z,13.71
2023-06-25T03:14:50.024Z,13.76
2023-06-25T03:17:16.314Z,13.78
2023-06-25T03:19:42.556Z,13.79
2023-06-25T03:22:08.697Z,13.82
2023-06-25T03:24:35.669Z,13.84
2023-06-25T03:27:02.512Z,13.86
2023-06-25T03:29:28.599Z,13.88
2023-06-25T03:31:54.800Z,13.96
2023-06-25T03:34:20.936Z,14.02
2023-06-25T03:36:47.066Z,14.03
2023-06-25T03:39:13.350Z,14.00
2023-06-25T03:41:39.518Z,14.06
2023-06-25T03:44:05.665Z,14.11
2023-06-25T03:46:31.842Z,14.23
2023-06-25T03:48:58.022Z,14.32
2023-06-25T03:51:24.161Z,14.40
2023-06-25T03:53:50.330Z,14.56
2023-06-25T03:56:16.680Z,14.72
2023-06-25T03:58:42.819Z,14.85
2023-06-25T04:01:09.033Z,15.01
2023-06-25T04:03:35.251Z,15.14
2023-06-25T04:06:01.393Z,15.31
2023-06-25T04:08:27.632Z,15.50
2023-06-25T04:10:53.882Z,15.68
2023-06-25T04:13:20.040Z,15.85
2023-06-25T04:15:46.487Z,15.99
2023-06-25T04:18:12.652Z,16.12
2023-06-25T04:20:38.781Z,16.27
2023-06-25T04:23:05.182Z,16.51
2023-06-25T04:25:31.643Z,16.61
2023-06-25T04:27:58.242Z,16.73
2023-06-25T04:30:24.510Z,16.72
2023-06-25T04:32:51.012Z,16.42
2023-06-25T04:35:17.301Z,16.13
2023-06-25T04:37:43.436Z,15.98
2023-06-25T04:40:09.680Z,16.12
2023-06-25T04:42:35.812Z,16.33
2023-06-25T04:45:02.000Z,16.50
2023-06-25T04:47:28.391Z,16.64
2023-06-25T04:49:54.545Z,16.85
2023-06-25T04:52:20.745Z,17.06
2023-06-25T04:54:46.938Z,17.21
2023-06-25T04:57:13.292Z,17.37
2023-06-25T04:59:39.419Z,17.50
2023-06-25T05:02:05.630Z,17.44
2023-06-25T05:04:31.781Z,17.35
2023-06-25T05:06:57.893Z,17.04
2023-06-25T05:09:24.568Z,16.57
2023-06-25T05:11:50.807Z,16.30
2023-06-25T05:14:17.539Z,16.19
2023-06-25T05:16:43.676Z,16.15
2023-06-25T05:19:09.780Z,16.17
2023-06-25T05:21:36.338Z,16.28
2023-06-25T05:24:03.814Z,16.40
2023-06-25T05:26:30.020Z,16.35
2023-06-25T05:28:56.677Z,16.28
2023-06-25T05:31:23.003Z,16.31
2023-06-25T05:33:49.207Z,16.39
2023-06-25T05:36:15.483Z,16.44
2023-06-25T05:38:41.759Z,16.42
2023-06-25T05:41:07.961Z,16.42
2023-06-25T05:43:34.118Z,16.37
2023-06-25T05:46:00.262Z,16.38
2023-06-25T05:48:26.370Z,16.44
2023-06-25T05:50:52.485Z,16.48
2023-06-25T05:53:18.631Z,16.55
2023-06-25T05:55:44.927Z,16.58
2023-06-25T05:58:11.608Z,16.65
2023-06-25T06:00:37.759Z,16.74
2023-06-25T06:03:03.921Z,16.84
2023-06-25T06:05:30.384Z,16.85
2023-06-25T06:07:56.566Z,16.84
2023-06-25T06:10:22.701Z,16.86
2023-06-25T06:12:48.877Z,16.97
2023-06-25T06:15:16.430Z,17.07
2023-06-25T06:17:42.710Z,17.14
2023-06-25T06:20:09.141Z,17.19
2023-06-25T06:22:35.285Z,17.18
2023-06-25T06:25:01.422Z,17.09
2023-06-25T06:27:28.244Z,17.04
2023-06-25T06:29:54.433Z,17.02
2023-06-25T06:32:20.613Z,17.01
2023-06-25T06:34:46.816Z,16.99
2023-06-25T06:37:12.993Z,17.01
2023-06-25T06:39:39.112Z,17.07
2023-06-25T06:42:05.331Z,17.11
2023-06-25T06:44:31.517Z,17.23
2023-06-25T06:46:57.700Z,17.24
2023-06-25T06:49:24.160Z,17.20
2023-06-25T06:51:50.409Z,17.19
2023-06-25T06:54:16.538Z,17.23
2023-06-25T06:56:42.769Z,17.23
2023-06-25T06:59:09.036Z,17.20
2023-06-25T07:01:35.304Z,17.32
2023-06-25T07:04:01.531Z,17.57
2023-06-25T07:06:27.713Z,17.73
2023-06-25T07:08:53.843Z,17.73
2023-06-25T07:11:20.357Z,17.72
2023-06-25T07:13:46.651Z,17.72
2023-06-25T07:16:12.886Z,17.69
2023-06-25T07:18:39.079Z,17.66
2023-06-25T07:21:06.255Z,17.66
2023-06-25T07:23:32.346Z,17.76
2023-06-25T07:25:58.532Z,17.87
2023-06-25T07:28:24.891Z,18.05
2023-06-25T07:30:51.090Z,18.22
2023-06-25T07:33:17.398Z,18.32
2023-06-25T07:35:43.677Z,18.32
2023-06-25T07:38:10.138Z,18.32
2023-06-25T07:40:36.501Z,18.37
2023-06-25T07:43:03.152Z,18.45
2023-06-25T07:45:29.480Z,18.40
2023-06-25T07:47:55.636Z,18.44
2023-06-25T07:50:21.791Z,18.47
2023-06-25T07:52:48.127Z,18.31
2023-06-25T07:55:14.278Z,18.22
2023-06-25T07:57:40.430Z,18.21
2023-06-25T08:00:06.687Z,18.25
2023-06-25T08:02:32.888Z,18.28
2023-06-25T08:04:59.240Z,18.26
2023-06-25T08:07:25.625Z,18.39
2023-06-25T08:09:54.376Z,18.48
2023-06-25T08:12:25.787Z,18.56
2023-06-25T08:14:52.034Z,18.69
2023-06-25T08:17:18.184Z,18.78
2023-06-25T08:19:44.452Z,18.90
2023-06-25T08:22:10.723Z,19.00
2023-06-25T08:24:36.880Z,19.04
2023-06-25T08:27:03.127Z,18.95
2023-06-25T08:29:30.180Z,18.91
2023-06-25T08:31:56.349Z,18.98
2023-06-25T08:34:22.753Z,18.92
2023-06-25T08:36:48.995Z,18.85
2023-06-25T08:39:15.158Z,18.83
2023-06-25T08:41:41.428Z,18.91
2023-06-25T08:44:07.690Z,19.08
2023-06-25T08:46:34.010Z,19.17
2023-06-25T08:49:00.443Z,19.23
2023-06-25T08:51:26.663Z,19.22
2023-06-25T08:53:52.954Z,19.32
2023-06-25T08:56:19.564Z,19.47
2023-06-25T08:58:45.695Z,19.58
2023-06-25T09:01:14.885Z,19.61
2023-06-25T09:03:42.155Z,19.62
2023-06-25T09:06:08.306Z,19.59
2023-06-25T09:08:34.576Z,19.60
2023-06-25T09:11:00.777Z,19.72
2023-06-25T09:13:26.946Z,19.75
2023-06-25T09:15:53.582Z,19.69
2023-06-25T09:18:20.725Z,19.55
2023-06-25T09:20:47.879Z,19.48
2023-06-25T09:23:14.438Z,19.47
2023-06-25T09:25:40.679Z,19.52
2023-06-25T09:28:06.966Z,19.55
2023-06-25T09:30:33.131Z,19.56
2023-06-25T09:32:59.425Z,19.57
2023-06-25T09:35:26.039Z,19.60
2023-06-25T09:37:52.594Z,19.66
2023-06-25T09:40:18.765Z,19.79
2023-06-25T09:42:47.726Z,19.82
2023-06-25T09:45:14.541Z,19.82
2023-06-25T09:47:40.764Z,19.93
2023-06-25T09:50:06.929Z,20.01
2023-06-25T09:52:33.222Z,20.02
2023-06-25T09:54:59.510Z,20.01
2023-06-25T09:57:26.493Z,19.89
2023-06-25T09:59:52.622Z,19.87
2023-06-25T10:02:19.280Z,19.94
2023-06-25T10:04:45.711Z,20.01
2023-06-25T10:07:12.138Z,20.07
2023-06-25T10:09:38.371Z,20.08
2023-06-25T10:12:04.576Z,20.17
2023-06-25T10:14:30.846Z,20.33
2023-06-25T10:16:57.120Z,20.47
2023-06-25T10:19:23.415Z,20.51
2023-06-25T10:21:50.033Z,20.54
2023-06-25T10:24:16.198Z,20.52
2023-06-25T10:26:42.383Z,20.47
2023-06-25T10:29:08.621Z,20.58
2023-06-25T10:31:34.957Z,20.69
2023-06-25T10:34:01.152Z,20.82
2023-06-25T10:36:27.382Z,20.85
2023-06-25T10:38:53.572Z,20.77
2023-06-25T10:41:20.114Z,20.69
2023-06-25T10:43:46.465Z,20.69
2023-06-25T10:46:12.627Z,20.74
2023-06-25T10:48:38.797Z,20.77
2023-06-25T10:51:05.192Z,20.85
2023-06-25T10:53:31.421Z,20.92
2023-06-25T10:55:57.594Z,20.94
2023-06-25T10:58:23.918Z,20.98
2023-06-25T11:00:50.098Z,20.96
2023-06-25T11:03:16.604Z,21.00
2023-06-25T11:05:42.928Z,21.04
2023-06-25T11:08:09.139Z,21.14
2023-06-25T11:10:35.246Z,21.15
2023-06-25T11:13:02.329Z,21.23
2023-06-25T11:15:28.514Z,21.24
2023-06-25T11:17:54.747Z,21.31
2023-06-25T11:20:20.884Z,21.46
2023-06-25T11:22:47.021Z,21.50
2023-06-25T11:25:13.744Z,21.40
2023-06-25T11:27:39.936Z,21.36
2023-06-25T11:30:07.447Z,21.40
2023-06-25T11:32:33.664Z,21.41
2023-06-25T11:34:59.993Z,21.34
2023-06-25T11:37:28.398Z,21.37
2023-06-25T11:39:54.680Z,21.39
2023-06-25T11:42:20.866Z,21.44
2023-06-25T11:44:47.248Z,21.47
2023-06-25T11:47:13.369Z,21.50
2023-06-25T11:49:39.720Z,21.50
2023-06-25T11:52:06.023Z,21.56
2023-06-25T11:54:32.145Z,21.53
2023-06-25T11:56:58.288Z,21.52
2023-06-25T11:59:24.494Z,21.59
2023-06-25T12:01:50.759Z,21.70
2023-06-25T12:04:18.445Z,21.75
2023-06-25T12:06:44.717Z,21.81
2023-06-25T12:09:10.885Z,21.91
2023-06-25T12:11:38.110Z,22.06
2023-06-25T12:14:04.296Z,22.13
2023-06-25T12:16:32.332Z,22.13
2023-06-25T12:18:58.722Z,22.16
2023-06-25T12:21:25.537Z,22.10
2023-06-25T12:23:51.722Z,22.11
2023-06-25T12:26:17.939Z,22.19
2023-06-25T12:28:44.152Z,22.27
2023-06-25T12:31:10.360Z,22.34
2023-06-25T12:33:36.474Z,22.25
2023-06-25T12:36:02.654Z,22.24
2023-06-25T12:38:28.838Z,22.28
2023-06-25T12:40:57.318Z,22.30
2023-06-25T12:43:23.504Z,22.26
2023-06-25T12:45:51.111Z,22.30
2023-06-25T12:48:17.413Z,22.42
2023-06-25T12:50:43.664Z,22.36
2023-06-25T12:53:09.774Z,22.29
2023-06-25T12:55:36.233Z,22.26
2023-06-25T12:58:02.627Z,22.26
2023-06-25T13:00:43.064Z,22.32
2023-06-25T13:03:15.266Z,22.32
2023-06-25T13:05:41.690Z,22.30
2023-06-25T13:08:07.805Z,22.07
2023-06-25T13:10:33.970Z,21.73
2023-06-25T13:13:00.656Z,21.54
2023-06-25T13:15:26.838Z,21.44
2023-06-25T13:17:53.169Z,21.36
2023-06-25T13:20:19.309Z,21.28
2023-06-25T13:22:45.419Z,21.31
2023-06-25T13:25:11.638Z,21.48
2023-06-25T13:27:37.854Z,21.65
2023-06-25T13:30:04.140Z,21.76
2023-06-25T13:32:30.391Z,21.82
2023-06-25T13:34:56.693Z,21.92
2023-06-25T13:37:22.824Z,21.88
2023-06-25T13:39:49.033Z,21.84
2023-06-25T13:42:15.305Z,21.83
2023-06-25T13:44:41.547Z,21.77
2023-06-25T13:47:08.221Z,21.68
2023-06-25T13:49:34.355Z,21.52
2023-06-25T13:52:00.876Z,21.38
2023-06-25T13:54:27.117Z,21.25
2023-06-25T13:56:55.266Z,21.21
2023-06-25T13:59:23.141Z,21.20
2023-06-25T14:01:49.249Z,21.15
2023-06-25T14:04:15.429Z,21.11
2023-06-25T14:06:41.866Z,21.07
2023-06-25T14:09:08.242Z,21.13
2023-06-25T14:11:34.791Z,21.24
2023-06-25T14:14:00.919Z,21.39
2023-06-25T14:16:32.258Z,21.60
2023-06-25T14:18:58.380Z,21.73
2023-06-25T14:21:24.506Z,21.67
2023-06-25T14:23:50.668Z,21.54
2023-06-25T14:26:16.781Z,21.46
2023-06-25T14:28:42.978Z,21.35
2023-06-25T14:31:09.946Z,21.25
2023-06-25T14:33:36.311Z,21.16
2023-06-25T14:36:02.610Z,21.10
2023-06-25T14:38:29.642Z,21.08
2023-06-25T14:40:55.768Z,21.08
2023-06-25T14:43:22.028Z,21.04
2023-06-25T14:45:48.250Z,21.00
2023-06-25T14:48:14.473Z,20.95
2023-06-25T14:50:40.625Z,20.95
2023-06-25T14:53:06.776Z,20.94
2023-06-25T14:55:39.199Z,20.94
2023-06-25T14:58:11.670Z,20.90
2023-06-25T15:00:37.840Z,20.89
2023-06-25T15:03:04.148Z,20.94
2023-06-25T15:05:30.529Z,20.96
2023-06-25T15:07:56.807Z,20.96
2023-06-25T15:10:22.889Z,20.97
2023-06-25T15:12:49.086Z,21.02
2023-06-25T15:15:15.253Z,21.14
2023-06-25T15:17:41.554Z,21.27
2023-06-25T15:20:07.978Z,21.41
2023-06-25T15:22:34.127Z,21.49
2023-06-25T15:25:00.277Z,21.45
2023-06-25T15:27:26.449Z,21.44
2023-06-25T15:29:52.647Z,21.39
2023-06-25T15:32:18.718Z,21.29
2023-06-25T15:34:44.904Z,21.23
2023-06-25T15:37:11.037Z,21.13
2023-06-25T15:39:37.156Z,21.07
2023-06-25T15:42:03.338Z,21.01
2023-06-25T15:44:29.555Z,20.96
2023-06-25T15:46:55.829Z,20.89
2023-06-25T15:49:21.967Z,20.83
2023-06-25T15:51:48.415Z,20.75
2023-06-25T15:54:24.995Z,20.68
2023-06-25T15:56:52.600Z,20.61
2023-06-25T15:59:19.250Z,20.56
2023-06-25T16:01:45.921Z,20.51
2023-06-25T16:04:12.217Z,20.47
2023-06-25T16:06:38.362Z,20.44
2023-06-25T16:09:04.925Z,20.43
2023-06-25T16:11:31.272Z,20.41
2023-06-25T16:13:57.429Z,20.36
2023-06-25T16:16:23.673Z,20.32
2023-06-25T16:18:52.902Z,20.32
2023-06-25T16:21:28.322Z,20.32
2023-06-25T16:23:54.442Z,20.31
2023-06-25T16:26:20.531Z,20.30
2023-06-25T16:28:46.723Z,20.29
2023-06-25T16:31:12.923Z,20.30
2023-06-25T16:33:39.090Z,20.34
2023-06-25T16:36:05.211Z,20.38
2023-06-25T16:38:31.640Z,20.39
2023-06-25T16:40:58.087Z,20.41
2023-06-25T16:43:24.232Z,20.41
2023-06-25T16:45:50.360Z,20.41
2023-06-25T16:48:16.585Z,20.41
2023-06-25T16:50:42.691Z,20.43
2023-06-25T16:53:08.924Z,20.44
2023-06-25T16:55:35.249Z,20.45
2023-06-25T16:58:01.687Z,20.47
2023-06-25T17:00:27.818Z,20.45
2023-06-25T17:02:54.123Z,20.44
2023-06-25T17:05:20.598Z,20.40
2023-06-25T17:07:46.886Z,20.41
2023-06-25T17:10:13.953Z,20.43
2023-06-25T17:12:40.803Z,20.48
2023-06-25T17:15:07.010Z,20.52
2023-06-25T17:17:33.201Z,20.56
2023-06-25T17:19:59.347Z,20.61
2023-06-25T17:22:25.551Z,20.67
2023-06-25T17:24:51.775Z,20.71
2023-06-25T17:27:17.890Z,20.75
2023-06-25T17:29:44.080Z,20.77
2023-06-25T17:32:10.331Z,20.76
2023-06-25T17:34:36.489Z,20.77
2023-06-25T17:37:02.696Z,20.76
2023-06-25T17:39:29.990Z,20.80
2023-06-25T17:41:56.170Z,20.82
2023-06-25T17:44:22.328Z,20.84
2023-06-25T17:46:48.478Z,20.82
2023-06-25T17:49:14.672Z,20.76
2023-06-25T17:51:40.892Z,20.70
2023-06-25T17:54:07.309Z,20.66
2023-06-25T17:56:33.532Z,20.63
2023-06-25T17:58:59.781Z,20.62
2023-06-25T18:01:26.068Z,20.57
2023-06-25T18:03:52.382Z,20.53
2023-06-25T18:06:18.823Z,20.49
2023-06-25T18:08:45.022Z,20.43
2023-06-25T18:11:12.260Z,20.36
2023-06-25T18:13:38.773Z,20.31
2023-06-25T18:16:04.927Z,20.26
2023-06-25T18:18:31.048Z,20.20
2023-06-25T18:20:57.217Z,20.15
2023-06-25T18:23:23.377Z,20.03
2023-06-25T18:25:49.629Z,19.96
2023-06-25T18:28:15.834Z,19.91
2023-06-25T18:30:42.179Z,19.83
2023-06-25T18:33:09.768Z,19.78
2023-06-25T18:35:37.103Z,19.73
2023-06-25T18:38:03.245Z,19.65
2023-06-25T18:40:29.440Z,19.53
2023-06-25T18:42:55.662Z,19.41
2023-06-25T18:45:21.822Z,19.29
2023-06-25T18:47:48.052Z,19.19
2023-06-25T18:50:17.511Z,19.12
2023-06-25T18:52:43.883Z,19.06
2023-06-25T18:55:10.315Z,19.01
2023-06-25T18:57:36.475Z,18.97
2023-06-25T19:00:05.696Z,18.93
2023-06-25T19:02:35.858Z,18.90
2023-06-25T19:05:02.355Z,18.86
2023-06-25T19:07:28.624Z,18.81
2023-06-25T19:09:55.458Z,18.75
2023-06-25T19:12:23.798Z,18.70
2023-06-25T19:14:49.916Z,18.67
2023-06-25T19:17:16.120Z,18.64
2023-06-25T19:19:42.296Z,18.60
2023-06-25T19:22:08.411Z,18.56
2023-06-25T19:24:34.614Z,18.54
2023-06-25T19:27:00.856Z,18.53
2023-06-25T19:29:27.146Z,18.49
2023-06-25T19:31:53.407Z,18.47
2023-06-25T19:34:20.053Z,18.43
2023-06-25T19:36:46.330Z,18.41
2023-06-25T19:39:12.679Z,18.37
2023-06-25T19:41:40.142Z,18.32
2023-06-25T19:44:06.327Z,18.27
2023-06-25T19:49:14.564Z,18.21
2023-06-25T19:51:40.758Z,18.17
2023-06-25T19:54:06.961Z,18.15
2023-06-25T19:56:33.121Z,18.12
2023-06-25T19:58:59.282Z,18.08
2023-06-25T20:01:25.447Z,18.04
2023-06-25T20:03:51.766Z,17.99
2023-06-25T20:06:17.894Z,17.95
2023-06-25T20:08:44.126Z,17.93
2023-06-25T20:11:10.596Z,17.89
2023-06-25T20:13:36.896Z,17.84
2023-06-25T20:16:03.078Z,17.79
2023-06-25T20:18:29.263Z,17.73
2023-06-25T20:20:55.416Z,17.68
2023-06-25T20:23:21.533Z,17.67
2023-06-25T20:25:47.814Z,17.66
2023-06-25T20:28:14.172Z,17.62
2023-06-25T20:30:40.749Z,17.57
2023-06-25T20:33:07.173Z,17.51
2023-06-25T20:35:35.420Z,17.46
2023-06-25T20:38:04.262Z,17.42
2023-06-25T20:40:30.630Z,17.38
2023-06-25T20:42:56.928Z,17.33
2023-06-25T20:45:23.204Z,17.27
2023-06-25T20:47:49.571Z,17.20
2023-06-25T20:50:15.838Z,17.17
2023-06-25T20:52:41.997Z,17.14
2023-06-25T20:55:10.194Z,17.11
2023-06-25T20:57:37.600Z,17.08
2023-06-25T21:00:05.306Z,17.10
2023-06-25T21:02:31.634Z,17.16
2023-06-25T21:04:58.147Z,17.27
2023-06-25T21:07:24.317Z,17.33
2023-06-25T21:09:50.563Z,17.33
2023-06-25T21:12:16.765Z,17.29
2023-06-25T21:14:43.014Z,17.24
2023-06-25T21:17:09.350Z,17.18
2023-06-25T21:19:35.511Z,17.16
2023-06-25T21:22:01.648Z,17.15
2023-06-25T21:24:27.940Z,17.14
2023-06-25T21:26:54.118Z,17.10
2023-06-25T21:29:20.243Z,17.08
2023-06-25T21:31:46.465Z,17.04
2023-06-25T21:34:12.734Z,17.01
2023-06-25T21:36:39.712Z,16.99
2023-06-25T21:39:07.276Z,16.95
2023-06-25T21:41:33.616Z,16.92
2023-06-25T21:43:59.720Z,16.92
2023-06-25T21:46:25.992Z,16.90
2023-06-25T21:48:52.212Z,16.87
2023-06-25T21:51:18.378Z,16.84
2023-06-25T21:53:44.523Z,16.79
2023-06-25T21:56:10.684Z,16.72
2023-06-25T21:58:36.769Z,16.70
2023-06-25T22:01:03.000Z,16.67
2023-06-25T22:03:29.322Z,16.65
2023-06-25T22:05:55.867Z,16.63
2023-06-25T22:08:22.010Z,16.60
2023-06-25T22:10:48.155Z,16.58
2023-06-25T22:13:17.803Z,16.59
2023-06-25T22:15:44.756Z,16.58
2023-06-25T22:18:10.937Z,16.57
2023-06-25T22:20:37.531Z,16.53
2023-06-25T22:23:03.914Z,16.49
2023-06-25T22:25:30.176Z,16.46
2023-06-25T22:27:56.426Z,16.41
2023-06-25T22:30:22.709Z,16.38
2023-06-25T22:32:49.047Z,16.31
2023-06-25T22:35:15.449Z,16.25
2023-06-25T22:37:42.010Z,16.26
2023-06-25T22:40:08.955Z,16.27
2023-06-25T22:42:35.352Z,16.20
2023-06-25T22:45:01.596Z,16.13
2023-06-25T22:47:29.543Z,16.11
2023-06-25T22:49:57.338Z,16.05
2023-06-25T22:52:23.799Z,15.97
2023-06-25T22:54:51.321Z,15.93
2023-06-25T22:57:17.851Z,15.90
2023-06-25T22:59:44.030Z,15.88
2023-06-25T23:02:10.259Z,15.82
2023-06-25T23:04:36.590Z,15.76
2023-06-25T23:07:03.163Z,15.74
2023-06-25T23:09:29.442Z,15.71
2023-06-25T23:11:55.672Z,15.60
2023-06-25T23:14:21.901Z,15.44
2023-06-25T23:16:49.040Z,15.31
2023-06-25T23:19:17.411Z,15.21
2023-06-25T23:21:46.032Z,15.19
2023-06-25T23:24:12.212Z,15.21
2023-06-25T23:26:45.398Z,15.21
2023-06-25T23:29:13.106Z,15.17
2023-06-25T23:31:39.373Z,15.16
2023-06-25T23:34:05.558Z,15.15
2023-06-25T23:36:31.697Z,15.05
2023-06-25T23:38:57.927Z,14.99
2023-06-25T23:41:24.127Z,14.97
2023-06-25T23:43:50.322Z,14.95
2023-06-25T23:46:16.557Z,14.90
2023-06-25T23:48:42.702Z,14.85
2023-06-25T23:51:08.907Z,14.81
2023-06-25T23:53:35.097Z,14.74
2023-06-25T23:56:01.261Z,14.71
2023-06-25T23:58:27.496Z,14.72
